Latest Coastal Weather Observations for Wadeye (Port Keats)

IDD60701

Issued at 4:01 pm CST Thursday 30 March 2017 (issued every 10 minutes, with the page automatically refreshed every 10 minutes)

About coastal observations | Map of coastal stations | Coastal observations for NT | Marine services | Other Formats
Station Details ID: 014948 Name: PORT KEATS AIRPORT Lat: -14.25 Lon: 129.53 Height: 28.0 m
Data from the previous 72 hours. | See also: Recent months at Wadeye (Port Keats)
Date/Time
CST
Temp
°C
Wind Pressure Rain since
9am
mm
Weather Cloud Vis
km
Sea
Height
m
Swell
Dir  Spd
kts
Gust
kts
hPa Trend Height
m
Period
s
Dir
30/04:00pm 30.7 WNW 5 8 1007.3 - 0.0 - - - - - - -
30/03:30pm 30.8 WNW 6 9 1007.2 - 0.0 - - - - - - -
30/03:00pm 31.5 WNW 7 10 1007.4 - 0.0 - - - - - - -
30/02:30pm 32.0 WNW 7 11 1007.3 - 0.0 - - - - - - -
30/02:00pm 30.9 WNW 7 9 1007.7 - 0.0 - - - - - - -
30/01:30pm 31.3 NW 9 16 1008.1 - 0.0 - - - - - - -
30/01:00pm 31.1 NW 7 15 1008.6 - 0.0 - - - - - - -
30/12:30pm 30.6 NW 10 15 1009.1 - 0.0 - - - - - - -
30/12:00pm 32.8 NW 9 15 1009.4 - 0.0 - - - - - - -
30/11:30am 31.3 WNW 9 16 1009.8 - 0.0 - - - - - - -
30/11:00am 30.8 NW 10 16 1010.3 - 0.0 - - - - - - -
30/10:30am 31.0 NW 10 14 1010.5 - 0.0 - - - - - - -
30/10:00am 30.4 NW 9 13 1010.6 - 0.0 - - - - - - -
30/09:30am 29.8 N 5 7 1010.7 - 0.0 - - - - - - -
30/09:00am 29.1 N 6 7 1010.2 - 0.6 - - - - - - -
30/08:30am 28.1 N 4 6 1009.9 - 0.6 - - - - - - -
30/08:00am 27.4 NE 5 7 1009.7 - 0.6 - - - - - - -
30/07:30am 26.4 NE 4 6 1009.6 - 0.6 - - - - - - -
30/07:00am 26.3 NE 3 5 1009.7 - 0.6 - - - - - - -
30/06:30am 26.3 ENE 4 6 1009.8 - 0.6 - - - - - - -
30/06:00am 26.4 NE 2 5 1009.2 - 0.6 - - - - - - -
30/05:30am 26.6 E 8 11 1009.3 - 0.6 - - - - - - -
30/05:00am 26.9 E 7 9 1008.8 - 0.6 - - - - - - -
30/04:30am 26.6 WSW 3 5 1007.6 - 0.6 - - - - - - -
30/04:00am 26.5 CALM 0 0 1007.8 - 0.6 - - - - - - -
30/03:30am 26.8 NNE 1 3 1008.0 - 0.6 - - - - - - -
30/03:00am 26.8 CALM 0 0 1008.0 - 0.6 - - - - - - -
30/02:30am 26.7 CALM 0 0 1008.2 - 0.6 - - - - - - -
30/02:00am 27.1 E 1 5 1008.5 - 0.6 - - - - - - -
30/01:30am 27.0 ENE 4 6 1008.8 - 0.6 - - - - - - -
30/01:00am 27.1 CALM 0 0 1009.0 - 0.6 - - - - - - -
30/12:30am 27.3 CALM 0 0 1009.1 - 0.6 - - - - - - -
30/12:00am 27.5 CALM 0 0 1008.7 - 0.6 - - - - - - -
 
Date/Time
CST
Temp
°C
Wind Pressure Rain since
9am
mm
Weather Cloud Vis
km
Sea
Height
m
Swell
Dir  Spd
kts
Gust
kts
hPa Trend Height
m
Period
s
Dir
29/11:30pm 27.7 CALM 0 0 1008.7 - 0.6 - - - - - - -
29/11:00pm 27.8 WNW 1 5 1008.4 - 0.6 - - - - - - -
29/10:30pm 28.3 ESE 6 8 1009.6 - 0.6 - - - - - - -
29/10:00pm 28.7 N 5 7 1008.6 - 0.6 - - - - - - -
29/09:30pm 28.5 NW 5 7 1008.2 - 0.6 - - - - - - -
29/09:00pm 28.6 CALM 0 0 1009.1 - 0.6 - - - - - - -
29/08:30pm 29.0 ENE 3 6 1009.4 - 0.6 - - - - - - -
29/08:00pm 29.1 SSW 3 4 1008.8 - 0.6 - - - - - - -
29/07:30pm 29.6 NNW 6 9 1008.0 - 0.6 - - - - - - -
29/07:00pm 29.6 N 6 8 1007.9 - 0.6 - - - - - - -
29/06:30pm 29.5 NNE 4 5 1006.6 - 0.6 - - - - - - -
29/06:00pm 29.9 NNW 5 6 1006.2 - 0.6 - - - - - - -
29/05:30pm 30.2 NNW 6 9 1006.5 - 0.6 - - - - - - -
29/05:00pm 30.2 WNW 7 9 1006.0 - 0.6 - - - - - - -
29/04:30pm 30.5 NW 5 7 1005.8 - 0.6 - - - - - - -
29/04:00pm 29.5 W 4 6 1006.0 - 0.6 - - - - - - -
29/03:30pm 31.3 WNW 7 9 1006.1 - 0.0 - - - - - - -
29/03:00pm 33.1 WNW 8 11 1006.2 - 0.0 - - - - - - -
29/02:30pm 33.1 NW 8 12 1006.6 - 0.0 - - - - - - -
29/02:00pm 33.2 NW 8 14 1006.9 - 0.0 - - - - - - -
29/01:30pm 32.8 WNW 6 11 1007.2 - 0.0 - - - - - - -
29/01:00pm 32.8 W 6 9 1007.6 - 0.0 - - - - - - -
29/12:30pm 32.6 W 6 9 1007.9 - 0.0 - - - - - - -
29/12:00pm 31.4 W 6 9 1008.6 - 0.0 - - - - - - -
29/11:30am 31.8 W 6 9 1009.1 - 0.0 - - - - - - -
29/11:00am 31.6 WNW 6 10 1009.3 - 0.0 - - - - - - -
29/10:30am 30.9 W 6 9 1009.3 - 0.0 - - - - - - -
29/10:00am 31.0 W 6 10 1009.3 - 0.0 - - - - - - -
29/09:30am 30.3 W 6 9 1009.5 - 0.0 - - - - - - -
29/09:00am 29.9 WNW 8 11 1008.8 - 0.0 - - - - - - -
29/08:30am 29.2 WNW 2 5 1008.9 - 0.0 - - - - - - -
29/08:00am 28.2 CALM 0 3 1008.6 - 0.0 - - - - - - -
29/07:30am 26.5 CALM 0 0 1008.3 - 0.0 - - - - - - -
29/07:00am 26.5 CALM 0 0 1008.0 - 0.0 - - - - - - -
29/06:30am 26.6 CALM 0 0 1007.7 - 0.0 - - - - - - -
29/06:00am 26.9 CALM 0 0 1007.6 - 0.0 - - - - - - -
29/05:30am 26.8 CALM 0 0 1007.5 - 0.0 - - - - - - -
29/05:00am 26.7 CALM 0 0 1007.4 - 0.0 - - - - - - -
29/04:30am 27.0 CALM 0 0 1007.4 - 0.0 - - - - - - -
29/04:00am 27.0 WNW 1 3 1007.2 - 0.0 - - - - - - -
29/03:30am 26.4 CALM 0 0 1007.2 - 0.0 - - - - - - -
29/03:00am 26.9 CALM 0 0 1007.5 - 0.0 - - - - - - -
29/02:30am 26.9 CALM 0 0 1007.5 - 0.0 - - - - - - -
29/02:00am 27.1 CALM 0 0 1007.7 - 0.0 - - - - - - -
29/01:30am 27.1 CALM 0 0 1007.6 - 0.0 - - - - - - -
29/01:00am 27.1 CALM 0 0 1007.9 - 0.0 - - - - - - -
29/12:30am 27.3 CALM 0 0 1008.0 - 0.0 - - - - - - -
29/12:00am 27.9 CALM 0 1 1008.3 - 0.0 - - - - - - -
 
Date/Time
CST
Temp
°C
Wind Pressure Rain since
9am
mm
Weather Cloud Vis
km
Sea
Height
m
Swell
Dir  Spd
kts
Gust
kts
hPa Trend Height
m
Period
s
Dir
28/11:30pm 27.9 CALM 0 0 1008.2 - 0.0 - - - - - - -
28/11:00pm 27.7 SSW 3 5 1008.1 - 0.0 - - - - - - -
28/10:30pm 28.1 NNW 5 6 1008.0 - 0.0 - - - - - - -
28/10:00pm 27.7 CALM 0 0 1008.3 - 0.0 - - - - - - -
28/09:30pm 28.3 CALM 0 3 1008.5 - 0.0 - - - - - - -
28/09:00pm 28.2 E 1 5 1008.6 - 0.0 - - - - - - -
28/08:30pm 28.2 CALM 0 0 1008.4 - 0.0 - - - - - - -
28/08:00pm 28.5 CALM 0 0 1007.7 - 0.0 - - - - - - -
28/07:30pm 29.0 CALM 0 0 1007.3 - 0.0 - - - - - - -
28/07:00pm 29.4 WNW 3 6 1006.3 - 0.0 - - - - - - -
28/06:30pm 30.4 W 4 6 1006.0 - 0.0 - - - - - - -
28/06:00pm 30.9 W 6 9 1005.7 - 0.0 - - - - - - -
28/05:30pm 31.9 W 6 11 1005.5 - 0.0 - - - - - - -
28/05:00pm 32.5 W 6 9 1005.6 - 0.0 - - - - - - -
28/04:30pm 32.5 WNW 4 8 1005.8 - 0.0 - - - - - - -
28/04:00pm 32.5 W 6 9 1006.1 - 0.0 - - - - - - -
28/03:30pm 32.4 WSW 7 11 1006.4 - 0.0 - - - - - - -
28/03:00pm 32.1 WNW 7 10 1006.8 - 0.0 - - - - - - -
28/02:30pm 32.2 W 7 11 1007.5 - 0.0 - - - - - - -
28/02:00pm 31.1 WNW 7 10 1007.9 - 0.0 - - - - - - -
28/01:30pm 31.3 WNW 7 11 1008.2 - 0.0 - - - - - - -
28/01:00pm 31.7 WNW 7 11 1008.5 - 0.0 - - - - - - -
28/12:30pm 30.8 W 8 12 1008.7 - 0.0 - - - - - - -
28/12:00pm 31.2 WNW 8 12 1009.1 - 0.0 - - - - - - -
28/11:30am 31.5 WNW 7 9 1009.5 - 0.0 - - - - - - -
28/11:00am 30.7 W 6 10 1009.7 - 0.0 - - - - - - -
28/10:30am 30.8 WSW 6 9 1009.9 - 0.0 - - - - - - -
28/10:00am 30.7 WNW 6 10 1010.0 - 0.0 - - - - - - -
28/09:30am 30.4 W 5 8 1010.0 - 0.0 - - - - - - -
28/09:00am 29.5 WSW 1 5 1009.9 - 0.2 - - - - - - -
28/08:30am 28.7 SW 1 4 1009.5 - 0.2 - - - - - - -
28/08:00am 27.7 CALM 0 0 1009.2 - 0.2 - - - - - - -
28/07:30am 27.6 CALM 0 0 1009.0 - 0.2 - - - - - - -
28/07:00am 27.2 CALM 0 0 1008.8 - 0.2 - - - - - - -
28/06:30am 26.7 SW 2 4 1008.5 - 0.2 - - - - - - -
28/06:00am 26.5 CALM 0 0 1008.1 - 0.2 - - - - - - -
28/05:30am 26.6 E 1 4 1008.0 - 0.2 - - - - - - -
28/05:00am 26.6 E 4 6 1008.0 - 0.2 - - - - - - -
28/04:30am 26.8 CALM 0 0 1007.8 - 0.2 - - - - - - -
28/04:00am 26.7 CALM 0 0 1007.8 - 0.2 - - - - - - -
28/03:30am 26.3 CALM 0 0 1007.8 - 0.2 - - - - - - -
28/03:00am 26.5 CALM 0 0 1008.2 - 0.2 - - - - - - -
28/02:30am 26.2 CALM 0 0 1008.2 - 0.2 - - - - - - -
28/02:00am 26.3 CALM 0 0 1008.5 - 0.2 - - - - - - -
28/01:30am 26.4 CALM 0 1 1008.5 - 0.2 - - - - - - -
28/01:00am 26.5 CALM 0 0 1008.3 - 0.2 - - - - - - -
28/12:30am 26.4 W 2 4 1008.6 - 0.2 - - - - - - -
28/12:00am 26.5 CALM 0 0 1009.3 - 0.2 - - - - - - -
 
Date/Time
CST
Temp
°C
Wind Pressure Rain since
9am
mm
Weather Cloud Vis
km
Sea
Height
m
Swell
Dir  Spd
kts
Gust
kts
hPa Trend Height
m
Period
s
Dir
27/11:30pm 26.8 CALM 0 0 1009.5 - 0.2 - - - - - - -
27/11:00pm 26.7 CALM 0 1 1009.6 - 0.2 - - - - - - -
27/10:30pm 27.2 CALM 0 0 1009.7 - 0.2 - - - - - - -
27/10:00pm 27.4 CALM 0 0 1009.6 - 0.2 - - - - - - -
27/09:30pm 27.3 CALM 0 1 1009.2 - 0.2 - - - - - - -
27/09:00pm 26.8 CALM 0 0 1008.8 - 0.2 - - - - - - -
27/08:30pm 27.7 CALM 0 0 1008.5 - 0.2 - - - - - - -
27/08:00pm 28.1 CALM 0 0 1007.9 - 0.2 - - - - - - -
27/07:30pm 28.3 WNW 1 3 1007.2 - 0.2 - - - - - - -
27/07:00pm 28.7 NW 1 5 1007.2 - 0.2 - - - - - - -
27/06:30pm 29.2 WNW 1 4 1006.9 - 0.2 - - - - - - -
27/06:00pm 29.0 NW 5 8 1006.5 - 0.2 - - - - - - -
27/05:30pm 29.6 NW 6 8 1006.6 - 0.2 - - - - - - -
27/05:00pm 30.2 NNW 5 6 1006.7 - 0.2 - - - - - - -
27/04:30pm 30.6 WNW 3 5 1006.9 - 0.2 - - - - - - -

Other Formats:

Comma delimited format used in spreadsheet applications
http://www.bom.gov.au/fwo/IDD60701/IDD60701.95111.axf

JavaScript Object Notation format (JSON) in row-major order
http://www.bom.gov.au/fwo/IDD60701/IDD60701.95111.json